createdAt,value
2023-01-15T00:00:12.478Z,84.40
2023-01-15T00:02:42.410Z,84.40
2023-01-15T00:05:12.339Z,84.40
2023-01-15T00:07:42.294Z,84.80
2023-01-15T00:10:13.238Z,84.90
2023-01-15T00:12:43.209Z,84.90
2023-01-15T00:15:14.597Z,85.10
2023-01-15T00:17:44.491Z,85.20
2023-01-15T00:20:15.027Z,85.30
2023-01-15T00:22:44.896Z,85.30
2023-01-15T00:25:34.387Z,85.30
2023-01-15T00:28:04.237Z,85.50
2023-01-15T00:30:34.368Z,85.50
2023-01-15T00:33:04.289Z,86.30
2023-01-15T00:35:34.087Z,85.70
2023-01-15T00:38:04.031Z,85.70
2023-01-15T00:40:33.884Z,85.90
2023-01-15T00:43:03.734Z,85.90
2023-01-15T00:45:33.548Z,86.10
2023-01-15T00:48:03.417Z,86.20
2023-01-15T00:50:33.904Z,86.40
2023-01-15T00:53:03.642Z,86.40
2023-01-15T00:55:33.460Z,86.60
2023-01-15T00:58:03.214Z,86.70
2023-01-15T01:00:33.152Z,86.60
2023-01-15T01:03:02.910Z,86.40
2023-01-15T01:05:34.461Z,86.50
2023-01-15T01:08:04.417Z,86.00
2023-01-15T01:10:34.492Z,86.00
2023-01-15T01:13:04.252Z,86.40
2023-01-15T01:15:37.021Z,86.40
2023-01-15T01:18:07.624Z,86.30
2023-01-15T01:20:40.077Z,86.50
2023-01-15T01:23:09.643Z,86.30
2023-01-15T01:25:39.621Z,86.40
2023-01-15T01:28:09.396Z,86.10
2023-01-15T01:30:41.366Z,86.10
2023-01-15T01:33:11.303Z,85.90
2023-01-15T01:35:41.050Z,85.80
2023-01-15T01:38:10.984Z,85.90
2023-01-15T01:40:43.309Z,85.80
2023-01-15T01:43:25.596Z,85.90
2023-01-15T01:45:55.548Z,85.60
2023-01-15T01:48:35.536Z,85.70
2023-01-15T01:51:07.886Z,85.50
2023-01-15T01:53:37.764Z,85.10
2023-01-15T01:56:13.202Z,84.90
2023-01-15T01:58:43.083Z,84.80
2023-01-15T02:01:13.054Z,84.60
2023-01-15T02:03:43.346Z,84.30
2023-01-15T02:06:15.113Z,84.00
2023-01-15T02:08:45.587Z,83.80
2023-01-15T02:11:22.803Z,83.60
2023-01-15T02:14:18.927Z,83.40
2023-01-15T02:17:18.342Z,83.10
2023-01-15T02:20:27.577Z,82.90
2023-01-15T02:23:36.563Z,82.50
2023-01-15T02:26:34.689Z,82.00
2023-01-15T02:29:10.407Z,81.70
2023-01-15T02:31:44.673Z,81.50
2023-01-15T02:34:33.492Z,80.90
2023-01-15T02:37:12.212Z,80.60
2023-01-15T02:39:45.079Z,80.20
2023-01-15T02:42:16.858Z,79.90
2023-01-15T02:44:51.135Z,79.60
2023-01-15T02:47:29.743Z,79.10
2023-01-15T02:50:02.854Z,78.70
2023-01-15T02:52:51.725Z,78.00
2023-01-15T02:55:30.894Z,77.30
2023-01-15T02:58:06.511Z,76.90
2023-01-15T03:00:41.892Z,76.10
2023-01-15T03:03:26.627Z,75.10
2023-01-15T03:06:07.564Z,74.40
2023-01-15T03:08:38.074Z,73.50
2023-01-15T03:11:17.866Z,70.40
2023-01-15T03:14:03.274Z,69.10
2023-01-15T03:16:44.054Z,67.90
2023-01-15T03:19:52.624Z,67.70
2023-01-15T03:22:40.262Z,67.00
2023-01-15T03:25:18.793Z,67.30
2023-01-15T03:27:48.782Z,67.10
2023-01-15T03:30:21.783Z,66.80
2023-01-15T03:32:52.052Z,67.00
2023-01-15T03:35:49.995Z,66.50
2023-01-15T03:38:27.300Z,65.60
2023-01-15T03:41:16.607Z,64.70
2023-01-15T03:44:18.067Z,64.70
2023-01-15T03:47:26.894Z,64.30
2023-01-15T03:50:20.084Z,63.30
2023-01-15T03:53:24.152Z,63.60
2023-01-15T03:55:59.785Z,62.80
2023-01-15T03:58:46.782Z,61.80
2023-01-15T04:01:22.426Z,61.40
2023-01-15T04:03:53.827Z,60.90
2023-01-15T04:06:26.828Z,61.10
2023-01-15T04:08:57.634Z,60.60
2023-01-15T04:11:28.891Z,60.40
2023-01-15T04:13:58.795Z,60.60
2023-01-15T04:16:32.110Z,60.00
2023-01-15T04:19:02.203Z,59.90
2023-01-15T04:21:32.825Z,59.60
2023-01-15T04:24:02.617Z,59.30
2023-01-15T04:26:32.418Z,59.00
2023-01-15T04:29:02.266Z,58.40
2023-01-15T04:31:34.191Z,58.30
2023-01-15T04:34:04.497Z,57.30
2023-01-15T04:36:37.172Z,56.90
2023-01-15T04:39:07.820Z,55.40
2023-01-15T04:41:57.251Z,56.10
2023-01-15T04:44:29.466Z,56.00
2023-01-15T04:46:59.658Z,56.00
2023-01-15T04:49:30.193Z,54.00
2023-01-15T04:52:00.130Z,53.90
2023-01-15T04:54:31.003Z,54.20
2023-01-15T04:57:01.069Z,53.50
2023-01-15T04:59:31.043Z,53.40
2023-01-15T05:02:06.315Z,52.50
2023-01-15T05:04:37.429Z,53.10
2023-01-15T05:07:08.043Z,51.90
2023-01-15T05:09:38.380Z,51.30
2023-01-15T05:12:08.682Z,51.50
2023-01-15T05:14:38.658Z,51.70
2023-01-15T05:17:08.805Z,50.80
2023-01-15T05:19:38.724Z,51.30
2023-01-15T05:22:08.880Z,50.30
2023-01-15T05:24:39.012Z,50.00
2023-01-15T05:27:08.838Z,50.20
2023-01-15T05:29:38.988Z,49.30
2023-01-15T05:32:09.682Z,49.60
2023-01-15T05:34:39.613Z,48.50
2023-01-15T05:37:09.380Z,49.20
2023-01-15T05:39:39.361Z,49.00
2023-01-15T05:42:09.860Z,48.60
2023-01-15T05:44:39.659Z,48.30
2023-01-15T05:47:09.570Z,47.80
2023-01-15T05:49:40.052Z,47.60
2023-01-15T05:52:10.141Z,47.30
2023-01-15T05:54:39.845Z,46.90
2023-01-15T05:57:12.599Z,46.60
2023-01-15T05:59:42.859Z,46.00
2023-01-15T06:02:12.736Z,45.70
2023-01-15T06:04:42.675Z,46.20
2023-01-15T06:07:12.472Z,45.60
2023-01-15T06:09:42.343Z,45.30
2023-01-15T06:12:12.230Z,45.90
2023-01-15T06:14:41.830Z,45.80
2023-01-15T06:17:12.026Z,44.70
2023-01-15T06:19:42.077Z,44.90
2023-01-15T06:22:11.829Z,44.50
2023-01-15T06:24:41.643Z,45.00
2023-01-15T06:27:11.405Z,41.80
2023-01-15T06:29:41.236Z,42.50
2023-01-15T06:32:10.956Z,42.00
2023-01-15T06:34:40.747Z,41.90
2023-01-15T06:37:10.510Z,42.10
2023-01-15T06:39:40.342Z,42.90
2023-01-15T06:42:30.603Z,42.60
2023-01-15T06:45:19.932Z,42.70
2023-01-15T06:47:50.556Z,42.70
2023-01-15T06:50:20.303Z,41.50
2023-01-15T06:52:50.112Z,41.40
2023-01-15T06:55:21.245Z,40.30
2023-01-15T06:57:51.078Z,40.00
2023-01-15T07:00:21.413Z,39.70
2023-01-15T07:02:51.947Z,39.10
2023-01-15T07:05:21.644Z,38.20
2023-01-15T07:07:51.442Z,38.50
2023-01-15T07:10:21.679Z,38.60
2023-01-15T07:12:51.514Z,38.10
2023-01-15T07:15:21.232Z,37.80
2023-01-15T07:17:51.244Z,37.50
2023-01-15T07:20:23.325Z,37.10
2023-01-15T07:22:54.294Z,36.50
2023-01-15T07:25:24.003Z,37.20
2023-01-15T07:27:53.809Z,37.10
2023-01-15T07:30:23.695Z,36.80
2023-01-15T07:32:53.727Z,36.90
2023-01-15T07:35:23.861Z,36.90
2023-01-15T07:37:56.689Z,36.60
2023-01-15T07:40:26.403Z,36.60
2023-01-15T07:43:15.865Z,36.50
2023-01-15T07:46:05.819Z,33.60
2023-01-15T07:48:55.378Z,35.40
2023-01-15T07:51:25.285Z,36.30
2023-01-15T07:53:54.964Z,35.40
2023-01-15T07:56:25.454Z,35.00
2023-01-15T07:58:55.364Z,35.00
2023-01-15T08:01:25.367Z,34.80
2023-01-15T08:03:55.320Z,34.90
2023-01-15T08:06:24.958Z,35.30
2023-01-15T08:08:54.790Z,35.50
2023-01-15T08:11:44.199Z,35.10
2023-01-15T08:14:33.784Z,34.60
2023-01-15T08:17:03.970Z,35.30
2023-01-15T08:19:34.103Z,34.50
2023-01-15T08:22:03.953Z,34.70
2023-01-15T08:24:34.002Z,35.00
2023-01-15T08:27:03.923Z,34.20
2023-01-15T08:29:33.833Z,34.60
2023-01-15T08:32:03.758Z,34.70
2023-01-15T08:34:33.773Z,34.30
2023-01-15T08:37:03.568Z,34.20
2023-01-15T08:39:33.638Z,34.30
2023-01-15T08:42:03.505Z,34.30
2023-01-15T08:44:33.441Z,34.60
2023-01-15T08:47:03.454Z,30.70
2023-01-15T08:49:33.326Z,30.70
2023-01-15T08:52:03.120Z,31.80
2023-01-15T08:54:33.143Z,32.70
2023-01-15T08:57:03.997Z,33.60
2023-01-15T08:59:33.941Z,34.20
2023-01-15T09:02:03.865Z,34.30
2023-01-15T09:04:33.900Z,33.40
2023-01-15T09:07:04.170Z,33.70
2023-01-15T09:09:34.140Z,34.00
2023-01-15T09:12:04.040Z,34.40
2023-01-15T09:14:59.547Z,34.70
2023-01-15T09:17:23.927Z,34.90
2023-01-15T09:19:55.363Z,34.90
2023-01-15T09:22:25.121Z,35.30
2023-01-15T09:24:54.943Z,35.30
2023-01-15T09:27:24.933Z,35.50
2023-01-15T09:29:55.317Z,35.50
2023-01-15T09:32:25.572Z,35.50
2023-01-15T09:34:55.565Z,35.60
2023-01-15T09:37:25.386Z,35.80
2023-01-15T09:39:55.145Z,34.80
2023-01-15T09:42:50.452Z,34.70
2023-01-15T09:45:39.090Z,34.60
2023-01-15T09:48:26.760Z,35.30
2023-01-15T09:51:03.429Z,35.20
2023-01-15T09:54:08.810Z,34.70
2023-01-15T09:56:40.395Z,35.90
2023-01-15T09:59:41.411Z,35.40
2023-01-15T10:02:31.955Z,35.50
2023-01-15T10:05:25.593Z,35.20
2023-01-15T10:08:29.083Z,35.50
2023-01-15T10:11:06.834Z,35.10
2023-01-15T10:13:51.078Z,35.60
2023-01-15T10:16:25.569Z,35.20
2023-01-15T10:18:55.919Z,36.00
2023-01-15T10:22:00.543Z,36.00
2023-01-15T10:24:41.671Z,36.50
2023-01-15T10:27:25.335Z,36.00
2023-01-15T10:30:17.274Z,36.10
2023-01-15T10:33:02.318Z,36.20
2023-01-15T10:35:57.997Z,36.40
2023-01-15T10:38:39.239Z,36.60
2023-01-15T10:41:27.000Z,36.70
2023-01-15T10:44:20.694Z,36.50
2023-01-15T10:46:58.648Z,36.50
2023-01-15T10:49:32.595Z,36.80
2023-01-15T10:52:27.504Z,37.00
2023-01-15T10:55:08.950Z,37.00
2023-01-15T10:58:11.205Z,37.30
2023-01-15T11:00:42.261Z,37.70
2023-01-15T11:03:19.902Z,38.00
2023-01-15T11:05:49.642Z,38.20
2023-01-15T11:09:07.409Z,38.40
2023-01-15T11:12:09.164Z,38.80
2023-01-15T11:15:03.976Z,39.20
2023-01-15T11:18:05.465Z,39.40
2023-01-15T11:20:48.100Z,39.80
2023-01-15T11:23:22.369Z,40.20
2023-01-15T11:26:01.811Z,40.30
2023-01-15T11:28:44.982Z,40.70
2023-01-15T11:31:16.055Z,41.30
2023-01-15T11:34:01.925Z,42.30
2023-01-15T11:36:33.681Z,42.80
2023-01-15T11:39:08.877Z,43.00
2023-01-15T11:41:58.269Z,42.90
2023-01-15T11:44:47.724Z,42.90
2023-01-15T11:47:40.503Z,43.20
2023-01-15T11:50:49.588Z,43.90
2023-01-15T11:53:30.144Z,44.90
2023-01-15T11:56:08.404Z,44.50
2023-01-15T11:58:59.191Z,44.90
2023-01-15T12:01:35.331Z,45.60
2023-01-15T12:04:10.284Z,46.20
2023-01-15T12:06:43.262Z,47.50
2023-01-15T12:09:36.223Z,47.90
2023-01-15T12:12:34.079Z,47.90
2023-01-15T12:15:43.242Z,48.30
2023-01-15T12:18:46.746Z,49.00
2023-01-15T12:21:43.012Z,49.40
2023-01-15T12:24:39.982Z,49.40
2023-01-15T12:27:34.836Z,49.50
2023-01-15T12:30:29.286Z,49.60
2023-01-15T12:33:17.845Z,49.80
2023-01-15T12:35:58.140Z,50.00
2023-01-15T12:38:43.352Z,50.50
2023-01-15T12:41:19.767Z,50.70
2023-01-15T12:44:15.156Z,51.00
2023-01-15T12:46:47.603Z,51.60
2023-01-15T12:49:42.233Z,52.20
2023-01-15T12:52:26.254Z,52.50
2023-01-15T12:55:09.178Z,52.90
2023-01-15T12:57:44.634Z,53.00
2023-01-15T13:00:32.903Z,53.30
2023-01-15T13:03:26.493Z,53.50
2023-01-15T13:06:04.386Z,53.90
2023-01-15T13:09:04.542Z,53.90
2023-01-15T13:11:35.220Z,53.90
2023-01-15T13:14:05.135Z,53.70
2023-01-15T13:16:51.112Z,54.50
2023-01-15T13:19:44.588Z,54.50
2023-01-15T13:22:20.786Z,55.00
2023-01-15T13:25:33.110Z,54.70
2023-01-15T13:28:39.835Z,54.60
2023-01-15T13:31:36.660Z,54.60
2023-01-15T13:34:19.253Z,54.50
2023-01-15T13:36:50.626Z,54.80
2023-01-15T13:39:23.643Z,55.00
2023-01-15T13:42:15.428Z,55.10
2023-01-15T13:44:52.633Z,55.30
2023-01-15T13:47:27.732Z,55.60
2023-01-15T13:50:01.674Z,55.80
2023-01-15T13:52:37.688Z,56.30
2023-01-15T13:55:25.288Z,56.40
2023-01-15T13:57:59.932Z,56.40
2023-01-15T14:00:38.932Z,56.60
2023-01-15T14:03:34.045Z,56.90
2023-01-15T14:06:09.669Z,57.70
2023-01-15T14:08:47.773Z,57.60
2023-01-15T14:11:37.469Z,57.40
2023-01-15T14:14:39.209Z,57.70
2023-01-15T14:17:48.138Z,57.70
2023-01-15T14:20:40.193Z,57.90
2023-01-15T14:23:57.846Z,58.00
2023-01-15T14:26:50.983Z,58.10
2023-01-15T14:29:55.075Z,58.20
2023-01-15T14:33:04.153Z,58.20
2023-01-15T14:35:39.723Z,58.40
2023-01-15T14:38:18.583Z,58.80
2023-01-15T14:41:06.507Z,58.80
2023-01-15T14:43:43.201Z,59.00
2023-01-15T14:46:35.954Z,59.00
2023-01-15T14:49:12.405Z,59.10
2023-01-15T14:51:52.947Z,59.20
2023-01-15T14:54:23.382Z,59.00
2023-01-15T14:57:02.646Z,58.90
2023-01-15T14:59:50.769Z,59.10
2023-01-15T15:02:36.180Z,59.20
2023-01-15T15:05:12.772Z,59.00
2023-01-15T15:07:46.543Z,59.10
2023-01-15T15:10:29.434Z,59.00
2023-01-15T15:13:21.776Z,59.10
2023-01-15T15:16:10.627Z,59.40
2023-01-15T15:19:03.400Z,59.40
2023-01-15T15:21:39.547Z,59.60
2023-01-15T15:24:28.654Z,60.10
2023-01-15T15:26:58.906Z,60.00
2023-01-15T15:29:28.701Z,60.90
2023-01-15T15:32:02.045Z,61.40
2023-01-15T15:34:36.362Z,61.90
2023-01-15T15:37:14.785Z,62.00
2023-01-15T15:39:53.576Z,62.50
2023-01-15T15:43:04.782Z,62.60
2023-01-15T15:45:54.299Z,62.60
2023-01-15T15:48:44.518Z,63.10
2023-01-15T15:51:38.628Z,63.10
2023-01-15T15:54:19.893Z,63.20
2023-01-15T15:57:01.359Z,63.90
2023-01-15T15:59:39.464Z,64.20
2023-01-15T16:02:20.982Z,64.20
2023-01-15T16:04:56.858Z,65.20
2023-01-15T16:07:36.203Z,65.50
2023-01-15T16:10:17.166Z,65.50
2023-01-15T16:12:52.986Z,65.20
2023-01-15T16:15:32.467Z,65.30
2023-01-15T16:18:04.531Z,65.30
2023-01-15T16:20:35.593Z,65.10
2023-01-15T16:23:08.431Z,65.00
2023-01-15T16:25:44.390Z,65.70
2023-01-15T16:28:45.119Z,64.80
2023-01-15T16:31:17.451Z,64.80
2023-01-15T16:33:49.043Z,65.60
2023-01-15T16:36:19.306Z,65.20
2023-01-15T16:38:51.938Z,65.70
2023-01-15T16:41:27.674Z,66.10
2023-01-15T16:44:07.386Z,66.50
2023-01-15T16:46:50.124Z,66.60
2023-01-15T16:49:32.874Z,66.50
2023-01-15T16:52:05.246Z,66.80
2023-01-15T16:54:44.349Z,66.90
2023-01-15T16:57:35.451Z,66.60
2023-01-15T17:00:09.424Z,67.10
2023-01-15T17:02:48.106Z,67.10
2023-01-15T17:05:24.198Z,67.40
2023-01-15T17:07:56.578Z,67.40
2023-01-15T17:10:29.159Z,67.10
2023-01-15T17:13:00.500Z,66.90
2023-01-15T17:15:38.037Z,66.70
2023-01-15T17:18:24.035Z,67.60
2023-01-15T17:20:53.786Z,67.00
2023-01-15T17:23:28.149Z,67.20
2023-01-15T17:25:58.693Z,67.20
2023-01-15T17:28:28.782Z,67.10
2023-01-15T17:31:03.742Z,66.90
2023-01-15T17:33:33.689Z,67.10
2023-01-15T17:36:03.479Z,67.40
2023-01-15T17:38:33.454Z,67.40
2023-01-15T17:41:05.321Z,67.50
2023-01-15T17:43:35.191Z,67.30
2023-01-15T17:46:05.216Z,67.20
2023-01-15T17:48:35.100Z,67.10
2023-01-15T17:51:07.003Z,67.20
2023-01-15T17:53:37.870Z,67.00
2023-01-15T17:56:27.813Z,67.00
2023-01-15T17:59:17.314Z,66.90
2023-01-15T18:02:08.835Z,66.90
2023-01-15T18:05:07.751Z,66.80
2023-01-15T18:07:42.628Z,66.50
2023-01-15T18:10:20.729Z,66.40
2023-01-15T18:12:51.058Z,66.50
2023-01-15T18:15:21.770Z,66.50
2023-01-15T18:17:51.566Z,66.30
2023-01-15T18:20:21.553Z,66.20
2023-01-15T18:22:51.496Z,66.00
2023-01-15T18:25:21.524Z,65.80
2023-01-15T18:27:52.230Z,65.80
2023-01-15T18:30:22.078Z,65.70
2023-01-15T18:32:52.272Z,65.80
2023-01-15T18:35:24.560Z,65.70
2023-01-15T18:37:54.434Z,65.70
2023-01-15T18:40:29.050Z,66.20
2023-01-15T18:43:19.398Z,65.50
2023-01-15T18:46:10.121Z,65.90
2023-01-15T18:48:39.999Z,65.90
2023-01-15T18:51:13.083Z,66.10
2023-01-15T18:53:42.900Z,66.30
2023-01-15T18:56:12.712Z,66.50
2023-01-15T18:58:44.681Z,66.90
2023-01-15T19:01:14.580Z,67.20
2023-01-15T19:03:44.480Z,67.10
2023-01-15T19:06:15.005Z,67.50
2023-01-15T19:08:44.943Z,67.70
2023-01-15T19:11:16.267Z,68.00
2023-01-15T19:14:05.639Z,67.70
2023-01-15T19:16:55.125Z,67.60
2023-01-15T19:19:24.756Z,67.50
2023-01-15T19:22:14.285Z,67.40
2023-01-15T19:24:44.180Z,68.00
2023-01-15T19:27:13.972Z,67.80
2023-01-15T19:29:44.010Z,67.70
2023-01-15T19:32:13.879Z,68.00
2023-01-15T19:34:44.117Z,68.30
2023-01-15T19:37:14.057Z,68.60
2023-01-15T19:39:43.786Z,68.50
2023-01-15T19:42:35.566Z,68.50
2023-01-15T19:45:25.242Z,69.10
2023-01-15T19:48:14.687Z,69.20
2023-01-15T19:50:47.064Z,69.50
2023-01-15T19:53:17.206Z,69.80
2023-01-15T19:55:47.847Z,69.80
2023-01-15T19:58:18.302Z,70.10
2023-01-15T20:00:54.816Z,69.90
2023-01-15T20:03:24.632Z,69.90
2023-01-15T20:05:54.750Z,70.30
2023-01-15T20:08:24.820Z,70.20
2023-01-15T20:10:54.547Z,70.70
2023-01-15T20:13:45.753Z,70.70
2023-01-15T20:16:17.834Z,70.80
2023-01-15T20:18:50.309Z,70.90
2023-01-15T20:21:21.014Z,70.80
2023-01-15T20:23:50.851Z,71.20
2023-01-15T20:26:20.686Z,70.90
2023-01-15T20:28:51.368Z,71.20
2023-01-15T20:31:21.905Z,71.20
2023-01-15T20:33:52.113Z,70.90
2023-01-15T20:36:22.275Z,71.20
2023-01-15T20:38:52.032Z,71.70
2023-01-15T20:41:41.346Z,71.70
2023-01-15T20:44:32.970Z,71.60
2023-01-15T20:47:02.734Z,72.00
2023-01-15T20:49:34.191Z,71.50
2023-01-15T20:52:03.930Z,71.60
2023-01-15T20:54:33.755Z,71.40
2023-01-15T20:57:03.520Z,71.50
2023-01-15T20:59:33.315Z,71.60
2023-01-15T21:02:03.157Z,71.60
2023-01-15T21:04:33.297Z,71.50
2023-01-15T21:07:03.073Z,71.30
2023-01-15T21:09:33.408Z,71.10
2023-01-15T21:12:03.172Z,71.30
2023-01-15T21:14:33.667Z,71.20
2023-01-15T21:17:03.393Z,71.10
2023-01-15T21:19:33.366Z,71.00
2023-01-15T21:22:03.164Z,71.20
2023-01-15T21:24:33.560Z,71.20
2023-01-15T21:27:03.634Z,71.30
2023-01-15T21:29:33.422Z,71.80
2023-01-15T21:32:03.373Z,71.90
2023-01-15T21:34:33.297Z,73.10
2023-01-15T21:37:03.340Z,72.60
2023-01-15T21:39:33.236Z,72.80
2023-01-15T21:42:22.618Z,72.90
2023-01-15T21:44:52.453Z,72.60
2023-01-15T21:47:22.703Z,72.70
2023-01-15T21:49:52.682Z,72.90
2023-01-15T21:52:23.013Z,72.80
2023-01-15T21:54:53.958Z,72.60
2023-01-15T21:57:24.189Z,72.50
2023-01-15T21:59:54.077Z,72.40
2023-01-15T22:02:25.045Z,72.30
2023-01-15T22:04:55.091Z,72.20
2023-01-15T22:07:24.929Z,72.10
2023-01-15T22:09:54.813Z,72.30
2023-01-15T22:12:24.421Z,72.20
2023-01-15T22:14:55.622Z,72.30
2023-01-15T22:17:25.814Z,72.20
2023-01-15T22:19:55.557Z,72.10
2023-01-15T22:22:27.523Z,72.10
2023-01-15T22:24:57.368Z,72.00
2023-01-15T22:27:28.309Z,72.90
2023-01-15T22:29:58.218Z,72.40
2023-01-15T22:32:28.003Z,72.20
2023-01-15T22:34:57.955Z,72.10
2023-01-15T22:37:27.998Z,72.00
2023-01-15T22:39:57.786Z,72.20
2023-01-15T22:42:29.087Z,72.30
2023-01-15T22:45:01.564Z,72.50
2023-01-15T22:47:31.987Z,72.50
2023-01-15T22:50:01.751Z,72.60
2023-01-15T22:52:31.755Z,72.50
2023-01-15T22:55:01.924Z,72.30
2023-01-15T22:57:32.999Z,72.10
2023-01-15T23:00:02.979Z,72.30
2023-01-15T23:02:52.315Z,72.40
2023-01-15T23:05:22.340Z,72.60
2023-01-15T23:07:52.451Z,72.60
2023-01-15T23:10:22.210Z,72.60
2023-01-15T23:12:51.963Z,72.40
2023-01-15T23:15:22.908Z,72.40
2023-01-15T23:17:53.445Z,72.40
2023-01-15T23:20:23.423Z,72.50
2023-01-15T23:22:53.280Z,72.30
2023-01-15T23:25:23.047Z,72.20
2023-01-15T23:27:52.855Z,72.30
2023-01-15T23:30:22.996Z,72.30
2023-01-15T23:32:52.971Z,72.20
2023-01-15T23:35:23.035Z,72.30
2023-01-15T23:37:53.240Z,72.40
2023-01-15T23:40:23.067Z,72.30
2023-01-15T23:43:12.578Z,72.40
2023-01-15T23:46:01.897Z,72.60
2023-01-15T23:48:32.077Z,72.90
2023-01-15T23:51:01.882Z,72.90
2023-01-15T23:53:31.565Z,73.10
2023-01-15T23:56:06.098Z,73.10
2023-01-15T23:58:36.045Z,73.30
